Terminal Aerodrome Forecast
Issued by NWS Grand Rapids, MI

Home | Current Version | Previous Version | Text Only | Print | Product List | Glossary On
Versions: 1 2 3 4 5 6 7 8 9 10 11 12 13 14 15 16 17 18 19 20 21 22 23 24 25 26 27 28 29 30 31 32 33 34 35
101
FTUS43 KGRR 250632 AAA
TAFGRR
TAF AMD
KGRR 250632Z 2507/2606 25013G22KT P6SM -SHSN OVC008
     FM251200 26016KT 4SM -SHSN OVC007
     FM251400 27017G25KT 1 1/2SM -SHSN OVC010
     FM251800 28019G27KT 2SM -SHSN OVC025
     FM252100 27019G27KT 4SM -SHSN OVC025
     FM260000 28012KT 6SM -SHSN OVC030=

USA.gov is the U.S. government's official web portal to all federal, state and local government web resources and services.